createdAt,value
2022-10-16T00:01:21.287Z,94773.97
2022-10-16T00:03:49.185Z,94772.59
2022-10-16T00:06:17.938Z,94773.50
2022-10-16T00:08:44.756Z,94780.84
2022-10-16T00:11:16.036Z,94782.84
2022-10-16T00:13:44.587Z,94792.09
2022-10-16T00:16:13.217Z,94782.53
2022-10-16T00:18:40.159Z,94780.41
2022-10-16T00:21:34.300Z,94784.19
2022-10-16T00:24:06.743Z,94776.56
2022-10-16T00:26:35.268Z,94786.69
2022-10-16T00:29:02.081Z,94785.88
2022-10-16T00:31:29.803Z,94790.41
2022-10-16T00:33:56.557Z,94785.63
2022-10-16T00:36:26.140Z,94793.28
2022-10-16T00:38:55.672Z,94793.13
2022-10-16T00:41:24.559Z,94796.69
2022-10-16T00:43:53.924Z,94794.03
2022-10-16T00:46:30.162Z,94797.69
2022-10-16T00:49:05.531Z,94792.44
2022-10-16T00:51:38.345Z,94779.75
2022-10-16T00:54:09.775Z,94778.22
2022-10-16T00:56:36.439Z,94787.41
2022-10-16T00:59:08.589Z,94781.31
2022-10-16T01:01:35.281Z,94792.19
2022-10-16T01:04:01.889Z,94791.38
2022-10-16T01:06:50.332Z,94790.38
2022-10-16T01:09:27.474Z,94800.84
2022-10-16T01:12:07.130Z,94798.53
2022-10-16T01:15:00.821Z,94799.66
2022-10-16T01:17:39.482Z,94801.03
2022-10-16T01:20:27.888Z,94793.84
2022-10-16T01:23:08.856Z,94793.31
2022-10-16T01:25:56.474Z,94782.97
2022-10-16T01:28:34.044Z,94779.53
2022-10-16T01:31:02.727Z,94773.13
2022-10-16T01:36:34.098Z,94783.22
2022-10-16T01:39:03.486Z,94792.34
2022-10-16T01:41:52.913Z,94786.22
2022-10-16T01:44:29.586Z,94789.00
2022-10-16T01:46:56.959Z,94794.09
2022-10-16T01:49:27.513Z,94791.47
2022-10-16T01:54:33.758Z,94794.44
2022-10-16T01:58:12.798Z,94797.38
2022-10-16T02:00:42.874Z,94803.72
2022-10-16T02:03:12.233Z,94807.38
2022-10-16T02:05:45.939Z,94803.09
2022-10-16T02:08:13.437Z,94803.31
2022-10-16T02:10:40.227Z,94814.13
2022-10-16T02:13:21.178Z,94813.00
2022-10-16T02:15:47.994Z,94821.00
2022-10-16T02:18:15.684Z,94819.19
2022-10-16T02:20:53.972Z,94823.97
2022-10-16T02:23:41.426Z,94821.16
2022-10-16T02:26:11.372Z,94826.03
2022-10-16T02:28:53.363Z,94835.28
2022-10-16T02:31:28.521Z,94836.47
2022-10-16T02:33:58.979Z,94828.50
2022-10-16T02:36:27.222Z,94820.47
2022-10-16T02:38:55.065Z,94821.38
2022-10-16T02:41:23.296Z,94821.13
2022-10-16T02:43:50.572Z,94831.72
2022-10-16T02:46:18.555Z,94833.91
2022-10-16T02:48:45.211Z,94837.88
2022-10-16T02:51:11.823Z,94832.72
2022-10-16T02:53:38.354Z,94844.72
2022-10-16T02:56:05.179Z,94839.72
2022-10-16T02:58:31.760Z,94843.06
2022-10-16T03:00:58.411Z,94845.34
2022-10-16T03:03:25.047Z,94841.31
2022-10-16T03:05:51.726Z,94846.84
2022-10-16T03:08:18.554Z,94848.25
2022-10-16T03:10:45.159Z,94839.41
2022-10-16T03:13:11.758Z,94846.78
2022-10-16T03:15:38.327Z,94845.69
2022-10-16T03:18:05.049Z,94837.97
2022-10-16T03:20:31.625Z,94846.78
2022-10-16T03:22:58.283Z,94852.53
2022-10-16T03:25:24.836Z,94850.25
2022-10-16T03:27:51.398Z,94857.25
2022-10-16T03:30:18.037Z,94860.16
2022-10-16T03:32:47.955Z,94860.88
2022-10-16T03:35:14.630Z,94858.78
2022-10-16T03:37:41.194Z,94858.47
2022-10-16T03:40:08.331Z,94856.97
2022-10-16T03:42:34.880Z,94857.34
2022-10-16T03:45:01.615Z,94849.88
2022-10-16T03:47:28.449Z,94853.97
2022-10-16T03:49:55.309Z,94850.06
2022-10-16T03:52:21.912Z,94851.38
2022-10-16T03:54:48.508Z,94857.47
2022-10-16T03:57:15.163Z,94847.66
2022-10-16T03:59:41.783Z,94847.44
2022-10-16T04:02:08.384Z,94844.88
2022-10-16T04:04:35.198Z,94840.03
2022-10-16T04:07:01.949Z,94850.38
2022-10-16T04:09:28.557Z,94845.19
2022-10-16T04:11:55.271Z,94852.84
2022-10-16T04:14:21.902Z,94853.91
2022-10-16T04:16:48.511Z,94848.72
2022-10-16T04:19:15.160Z,94853.50
2022-10-16T04:21:41.759Z,94853.84
2022-10-16T04:24:08.404Z,94849.88
2022-10-16T04:26:34.998Z,94855.19
2022-10-16T04:29:01.643Z,94855.75
2022-10-16T04:31:28.299Z,94860.56
2022-10-16T04:33:54.852Z,94856.38
2022-10-16T04:36:24.254Z,94854.34
2022-10-16T04:38:53.473Z,94849.31
2022-10-16T04:41:20.067Z,94867.47
2022-10-16T04:43:46.739Z,94866.31
2022-10-16T04:46:13.512Z,94865.41
2022-10-16T04:48:40.063Z,94870.09
2022-10-16T04:51:06.830Z,94875.38
2022-10-16T04:53:34.385Z,94879.72
2022-10-16T04:56:01.045Z,94879.22
2022-10-16T04:58:27.595Z,94882.78
2022-10-16T05:00:54.948Z,94890.06
2022-10-16T05:03:22.321Z,94894.56
2022-10-16T05:05:49.204Z,94893.06
2022-10-16T05:08:16.976Z,94894.09
2022-10-16T05:10:44.869Z,94892.44
2022-10-16T05:13:12.390Z,94892.06
2022-10-16T05:15:38.982Z,94899.00
2022-10-16T05:18:05.666Z,94901.97
2022-10-16T05:20:34.208Z,94896.50
2022-10-16T05:23:00.950Z,94903.56
2022-10-16T05:25:27.549Z,94902.38
2022-10-16T05:27:54.233Z,94901.19
2022-10-16T05:30:21.267Z,94900.69
2022-10-16T05:32:49.826Z,94913.59
2022-10-16T05:35:17.793Z,94901.88
2022-10-16T05:37:44.522Z,94904.31
2022-10-16T05:40:11.993Z,94905.53
2022-10-16T05:42:38.640Z,94906.81
2022-10-16T05:45:07.178Z,94919.66
2022-10-16T05:47:33.867Z,94917.00
2022-10-16T05:50:00.443Z,94924.63
2022-10-16T05:52:28.482Z,94929.63
2022-10-16T05:54:55.062Z,94923.56
2022-10-16T05:57:21.928Z,94929.66
2022-10-16T05:59:48.492Z,94931.44
2022-10-16T06:02:15.199Z,94930.66
2022-10-16T06:04:42.118Z,94936.47
2022-10-16T06:07:08.929Z,94943.56
2022-10-16T06:09:35.544Z,94952.25
2022-10-16T06:12:02.584Z,94948.00
2022-10-16T06:14:29.194Z,94955.50
2022-10-16T06:16:55.791Z,94955.19
2022-10-16T06:19:22.518Z,94953.50
2022-10-16T06:21:49.101Z,94955.56
2022-10-16T06:24:15.746Z,94958.09
2022-10-16T06:26:42.300Z,94958.06
2022-10-16T06:29:09.868Z,94953.59
2022-10-16T06:31:36.490Z,94956.84
2022-10-16T06:34:04.361Z,94962.56
2022-10-16T06:36:31.178Z,94965.00
2022-10-16T06:38:57.755Z,94964.31
2022-10-16T06:41:24.549Z,94971.25
2022-10-16T06:43:51.841Z,94971.72
2022-10-16T06:46:21.517Z,94979.31
2022-10-16T06:48:48.392Z,94975.06
2022-10-16T06:51:25.115Z,94977.88
2022-10-16T06:54:04.986Z,94989.59
2022-10-16T06:56:34.422Z,94985.75
2022-10-16T06:59:02.075Z,94988.09
2022-10-16T07:01:29.476Z,94992.00
2022-10-16T07:03:56.237Z,94993.81
2022-10-16T07:06:25.217Z,94988.00
2022-10-16T07:08:52.357Z,94996.28
2022-10-16T07:11:21.818Z,94995.72
2022-10-16T07:13:52.964Z,94998.81
2022-10-16T07:16:25.903Z,95000.38
2022-10-16T07:18:58.561Z,95001.63
2022-10-16T07:21:26.951Z,95003.06
2022-10-16T07:23:59.020Z,95002.97
2022-10-16T07:26:27.264Z,94998.59
2022-10-16T07:28:53.952Z,95002.59
2022-10-16T07:31:21.685Z,95007.66
2022-10-16T07:33:49.291Z,95004.50
2022-10-16T07:36:18.853Z,95005.19
2022-10-16T07:38:46.889Z,95013.00
2022-10-16T07:41:16.425Z,95005.84
2022-10-16T07:43:53.955Z,95008.66
2022-10-16T07:46:23.097Z,95007.41
2022-10-16T07:48:50.161Z,95010.22
2022-10-16T07:51:19.700Z,95008.09
2022-10-16T07:53:47.012Z,95011.97
2022-10-16T07:56:13.705Z,95004.53
2022-10-16T07:58:40.464Z,95015.31
2022-10-16T08:01:09.732Z,95013.91
2022-10-16T08:03:37.012Z,95012.53
2022-10-16T08:06:04.470Z,95013.06
2022-10-16T08:08:31.492Z,95013.09
2022-10-16T08:10:58.154Z,95012.31
2022-10-16T08:13:24.986Z,95016.97
2022-10-16T08:15:51.558Z,95009.75
2022-10-16T08:18:18.262Z,95004.66
2022-10-16T08:20:44.841Z,95003.94
2022-10-16T08:23:14.726Z,95004.25
2022-10-16T08:25:42.345Z,95008.31
2022-10-16T08:28:10.945Z,95007.13
2022-10-16T08:30:38.028Z,95002.63
2022-10-16T08:33:05.023Z,95007.41
2022-10-16T08:35:31.627Z,94992.03
2022-10-16T08:37:58.282Z,95005.38
2022-10-16T08:40:33.720Z,94996.22
2022-10-16T08:43:19.228Z,94997.97
2022-10-16T08:46:06.998Z,94998.97
2022-10-16T08:48:51.664Z,95005.66
2022-10-16T08:51:24.771Z,95006.78
2022-10-16T08:53:51.268Z,95002.84
2022-10-16T08:56:19.506Z,95018.22
2022-10-16T09:01:23.977Z,95013.63
2022-10-16T09:04:33.655Z,95011.63
2022-10-16T09:07:32.318Z,95014.88
2022-10-16T09:10:16.795Z,95014.44
2022-10-16T09:13:10.653Z,95004.28
2022-10-16T09:15:51.739Z,95001.16
2022-10-16T09:18:30.139Z,95000.59
2022-10-16T09:21:19.284Z,94997.47
2022-10-16T09:23:46.230Z,95000.47
2022-10-16T09:26:15.124Z,95004.47
2022-10-16T09:28:42.159Z,95001.28
2022-10-16T09:31:19.344Z,95000.88
2022-10-16T09:33:51.453Z,95009.41
2022-10-16T09:36:18.945Z,95010.03
2022-10-16T09:38:45.520Z,95006.69
2022-10-16T09:41:22.198Z,95004.22
2022-10-16T09:43:59.964Z,94998.47
2022-10-16T09:46:36.359Z,94998.41
2022-10-16T09:49:21.912Z,94996.44
2022-10-16T09:51:48.554Z,95002.16
2022-10-16T09:54:20.405Z,94981.44
2022-10-16T09:56:50.275Z,94987.81
2022-10-16T09:59:19.251Z,94983.84
2022-10-16T10:01:49.092Z,94987.88
2022-10-16T10:04:16.358Z,94995.94
2022-10-16T10:06:49.332Z,94992.84
2022-10-16T10:09:26.917Z,94994.75
2022-10-16T10:12:04.047Z,94982.75
2022-10-16T10:14:41.089Z,94984.72
2022-10-16T10:17:07.644Z,94988.66
2022-10-16T10:19:49.337Z,94984.13
2022-10-16T10:22:33.954Z,94989.16
2022-10-16T10:25:12.663Z,94983.63
2022-10-16T10:27:58.623Z,94975.44
2022-10-16T10:30:51.257Z,94975.03
2022-10-16T10:33:42.368Z,94969.13
2022-10-16T10:36:41.846Z,94977.31
2022-10-16T10:39:43.190Z,94972.97
2022-10-16T10:42:12.842Z,94964.38
2022-10-16T10:45:16.958Z,94954.53
2022-10-16T10:47:46.435Z,94955.84
2022-10-16T10:50:48.345Z,94958.28
2022-10-16T10:53:33.715Z,94953.78
2022-10-16T10:56:17.705Z,94947.84
2022-10-16T10:59:06.394Z,94944.78
2022-10-16T11:01:41.864Z,94947.06
2022-10-16T11:04:59.937Z,94941.22
2022-10-16T11:07:31.209Z,94934.28
2022-10-16T11:10:10.338Z,94936.53
2022-10-16T11:12:43.339Z,94934.59
2022-10-16T11:15:18.292Z,94942.69
2022-10-16T11:17:55.076Z,94932.16
2022-10-16T11:20:30.162Z,94929.44
2022-10-16T11:22:59.615Z,94930.69
2022-10-16T11:25:31.918Z,94933.00
2022-10-16T11:28:16.325Z,94928.25
2022-10-16T11:31:09.124Z,94923.03
2022-10-16T11:33:48.087Z,94919.66
2022-10-16T11:36:34.808Z,94921.78
2022-10-16T11:39:26.277Z,94920.53
2022-10-16T11:41:57.102Z,94926.09
2022-10-16T11:44:54.705Z,94920.94
2022-10-16T11:48:03.356Z,94921.66
2022-10-16T11:50:33.048Z,94928.00
2022-10-16T11:53:06.584Z,94922.84
2022-10-16T11:55:41.633Z,94927.09
2022-10-16T11:58:16.691Z,94918.75
2022-10-16T12:01:11.670Z,94924.97
2022-10-16T12:03:50.673Z,94917.94
2022-10-16T12:06:53.397Z,94925.69
2022-10-16T12:09:26.154Z,94916.88
2022-10-16T12:11:53.040Z,94906.13
2022-10-16T12:14:21.471Z,94913.31
2022-10-16T12:17:24.068Z,94914.50
2022-10-16T12:20:31.771Z,94916.69
2022-10-16T12:23:06.854Z,94924.88
2022-10-16T12:25:40.201Z,94927.91
2022-10-16T12:28:20.330Z,94917.25
2022-10-16T12:31:04.490Z,94925.84
2022-10-16T12:33:32.189Z,94931.19
2022-10-16T12:36:03.163Z,94923.34
2022-10-16T12:38:50.483Z,94922.66
2022-10-16T12:41:38.779Z,94918.84
2022-10-16T12:44:05.503Z,94921.81
2022-10-16T12:46:34.101Z,94926.63
2022-10-16T12:49:23.153Z,94919.69
2022-10-16T12:51:49.879Z,94918.53
2022-10-16T12:54:36.430Z,94922.31
2022-10-16T12:57:24.681Z,94924.25
2022-10-16T13:00:23.175Z,94924.13
2022-10-16T13:03:10.323Z,94931.38
2022-10-16T13:06:14.953Z,94934.13
2022-10-16T13:09:20.884Z,94937.41
2022-10-16T13:12:18.234Z,94932.44
2022-10-16T13:15:10.651Z,94932.38
2022-10-16T13:17:49.412Z,94932.75
2022-10-16T13:20:25.064Z,94930.78
2022-10-16T13:23:30.275Z,94924.13
2022-10-16T13:26:05.659Z,94933.88
2022-10-16T13:28:34.465Z,94929.78
2022-10-16T13:31:02.677Z,94936.75
2022-10-16T13:33:42.453Z,94933.66
2022-10-16T13:36:20.909Z,94933.56
2022-10-16T13:38:47.650Z,94928.13
2022-10-16T13:41:18.068Z,94931.00
2022-10-16T13:43:48.500Z,94949.28
2022-10-16T13:46:19.790Z,94934.63
2022-10-16T13:49:01.605Z,94937.25
2022-10-16T13:51:30.455Z,94944.75
2022-10-16T13:53:58.551Z,94939.66
2022-10-16T13:56:33.761Z,94938.41
2022-10-16T13:59:01.710Z,94938.88
2022-10-16T14:01:34.585Z,94942.09
2022-10-16T14:04:10.198Z,94941.00
2022-10-16T14:06:37.971Z,94945.09
2022-10-16T14:09:12.875Z,94937.22
2022-10-16T14:11:52.889Z,94950.53
2022-10-16T14:14:23.299Z,94948.78
2022-10-16T14:16:50.148Z,94954.59
2022-10-16T14:19:26.827Z,94951.59
2022-10-16T14:21:54.045Z,94946.13
2022-10-16T14:24:34.557Z,94949.25
2022-10-16T14:27:02.172Z,94949.66
2022-10-16T14:29:32.541Z,94952.41
2022-10-16T14:32:02.497Z,94955.66
2022-10-16T14:34:37.591Z,94961.22
2022-10-16T14:37:27.680Z,94962.06
2022-10-16T14:39:56.142Z,94963.06
2022-10-16T14:42:25.706Z,94963.25
2022-10-16T14:44:54.161Z,94964.16
2022-10-16T14:47:26.405Z,94969.13
2022-10-16T14:50:00.062Z,94971.00
2022-10-16T14:52:29.016Z,94979.94
2022-10-16T14:54:58.065Z,94976.47
2022-10-16T14:57:29.118Z,94985.47
2022-10-16T14:59:57.182Z,94989.69
2022-10-16T15:02:34.043Z,94995.91
2022-10-16T15:05:12.828Z,94997.69
2022-10-16T15:07:39.440Z,94994.97
2022-10-16T15:10:06.220Z,94998.88
2022-10-16T15:12:33.347Z,94999.91
2022-10-16T15:14:59.945Z,95001.38
2022-10-16T15:17:26.837Z,95002.09
2022-10-16T15:19:53.660Z,95003.50
2022-10-16T15:22:20.228Z,95001.72
2022-10-16T15:24:46.818Z,95013.03
2022-10-16T15:27:13.529Z,95006.88
2022-10-16T15:29:40.127Z,95011.88
2022-10-16T15:32:06.678Z,95008.22
2022-10-16T15:34:33.362Z,95019.41
2022-10-16T15:37:04.161Z,95017.59
2022-10-16T15:39:30.757Z,95023.25
2022-10-16T15:41:57.330Z,95031.59
2022-10-16T15:44:26.524Z,95038.09
2022-10-16T15:46:56.373Z,95035.91
2022-10-16T15:49:23.275Z,95040.97
2022-10-16T15:51:49.859Z,95037.66
2022-10-16T15:54:16.501Z,95049.31
2022-10-16T15:56:43.086Z,95055.78
2022-10-16T15:59:09.787Z,95044.09
2022-10-16T16:01:36.905Z,95050.91
2022-10-16T16:04:15.476Z,95055.16
2022-10-16T16:06:52.193Z,95063.09
2022-10-16T16:09:18.824Z,95055.47
2022-10-16T16:11:45.455Z,95063.16
2022-10-16T16:14:14.283Z,95069.22
2022-10-16T16:16:40.976Z,95062.59
2022-10-16T16:19:11.403Z,95071.53
2022-10-16T16:21:38.831Z,95075.69
2022-10-16T16:24:09.330Z,95074.84
2022-10-16T16:26:40.478Z,95074.41
2022-10-16T16:29:08.161Z,95082.47
2022-10-16T16:31:35.862Z,95083.91
2022-10-16T16:34:02.926Z,95076.59
2022-10-16T16:36:29.922Z,95084.91
2022-10-16T16:38:58.024Z,95084.28
2022-10-16T16:41:27.478Z,95092.78
2022-10-16T16:43:55.511Z,95101.53
2022-10-16T16:46:23.428Z,95104.31
2022-10-16T16:48:56.362Z,95111.09
2022-10-16T16:51:23.049Z,95112.22
2022-10-16T16:53:52.218Z,95121.22
2022-10-16T16:56:20.046Z,95124.94
2022-10-16T16:58:47.755Z,95131.00
2022-10-16T17:01:19.737Z,95131.38
2022-10-16T17:03:47.550Z,95135.91
2022-10-16T17:06:15.400Z,95131.16
2022-10-16T17:08:42.968Z,95137.34
2022-10-16T17:11:21.327Z,95141.88
2022-10-16T17:13:51.261Z,95133.53
2022-10-16T17:16:23.743Z,95129.09
2022-10-16T17:18:50.486Z,95138.34
2022-10-16T17:21:17.205Z,95135.75
2022-10-16T17:23:43.859Z,95141.91
2022-10-16T17:26:17.403Z,95144.31
2022-10-16T17:28:44.852Z,95142.06
2022-10-16T17:31:19.892Z,95139.56
2022-10-16T17:33:47.403Z,95146.06
2022-10-16T17:36:15.169Z,95146.75
2022-10-16T17:38:42.666Z,95145.63
2022-10-16T17:41:24.021Z,95149.28
2022-10-16T17:43:52.042Z,95151.44
2022-10-16T17:46:21.506Z,95154.66
2022-10-16T17:48:51.210Z,95148.84
2022-10-16T17:51:20.309Z,95150.91
2022-10-16T17:53:51.866Z,95143.63
2022-10-16T17:56:19.192Z,95144.75
2022-10-16T17:58:52.315Z,95142.94
2022-10-16T18:01:20.682Z,95153.28
2022-10-16T18:04:00.088Z,95150.28
2022-10-16T18:06:28.040Z,95152.13
2022-10-16T18:08:57.744Z,95152.50
2022-10-16T18:11:25.094Z,95161.69
2022-10-16T18:13:53.355Z,95157.69
2022-10-16T18:16:20.338Z,95168.06
2022-10-16T18:18:48.169Z,95175.91
2022-10-16T18:21:17.887Z,95184.03
2022-10-16T18:23:50.828Z,95181.06
2022-10-16T18:26:20.179Z,95180.47
2022-10-16T18:28:46.964Z,95192.28
2022-10-16T18:31:16.626Z,95195.97
2022-10-16T18:33:50.600Z,95191.34
2022-10-16T18:36:19.949Z,95193.75
2022-10-16T18:38:46.713Z,95197.56
2022-10-16T18:41:13.465Z,95203.34
2022-10-16T18:43:40.423Z,95209.50
2022-10-16T18:46:12.249Z,95205.75
2022-10-16T18:48:40.393Z,95217.44
2022-10-16T18:51:16.174Z,95214.28
2022-10-16T18:53:44.782Z,95214.19
2022-10-16T18:56:13.058Z,95218.31
2022-10-16T18:58:41.543Z,95216.34
2022-10-16T19:01:11.210Z,95222.63
2022-10-16T19:03:43.184Z,95224.25
2022-10-16T19:06:13.894Z,95240.66
2022-10-16T19:08:41.357Z,95244.22
2022-10-16T19:11:12.699Z,95243.69
2022-10-16T19:13:39.455Z,95252.53
2022-10-16T19:16:27.037Z,95252.50
2022-10-16T19:18:55.983Z,95257.19
2022-10-16T19:21:24.544Z,95254.38
2022-10-16T19:23:53.100Z,95255.84
2022-10-16T19:26:21.373Z,95267.03
2022-10-16T19:28:48.461Z,95258.19
2022-10-16T19:31:18.535Z,95258.63
2022-10-16T19:33:45.841Z,95263.91
2022-10-16T19:36:17.263Z,95261.88
2022-10-16T19:38:45.472Z,95272.59
2022-10-16T19:41:13.579Z,95267.59
2022-10-16T19:43:41.035Z,95275.44
2022-10-16T19:46:14.092Z,95275.44
2022-10-16T19:48:41.565Z,95277.22
2022-10-16T19:51:11.786Z,95278.13
2022-10-16T19:53:38.406Z,95278.03
2022-10-16T19:56:32.168Z,95286.53
2022-10-16T19:59:00.136Z,95288.97
2022-10-16T20:01:28.941Z,95284.41
2022-10-16T20:03:56.165Z,95285.97
2022-10-16T20:06:23.286Z,95300.88
2022-10-16T20:08:52.051Z,95297.72
2022-10-16T20:11:22.091Z,95296.16
2022-10-16T20:13:49.354Z,95293.25
2022-10-16T20:16:19.091Z,95293.03
2022-10-16T20:18:48.441Z,95299.31
2022-10-16T20:21:20.892Z,95298.06
2022-10-16T20:23:48.998Z,95299.19
2022-10-16T20:26:16.558Z,95297.03
2022-10-16T20:28:44.003Z,95298.81
2022-10-16T20:31:17.538Z,95307.53
2022-10-16T20:33:45.022Z,95304.44
2022-10-16T20:36:16.139Z,95305.00
2022-10-16T20:38:43.430Z,95313.38
2022-10-16T20:41:11.109Z,95301.97
2022-10-16T20:46:17.020Z,95303.31
2022-10-16T20:48:44.220Z,95313.72
2022-10-16T20:51:26.136Z,95310.59
2022-10-16T20:53:55.780Z,95303.63
2022-10-16T20:56:22.969Z,95313.91
2022-10-16T20:58:49.831Z,95315.81
2022-10-16T21:01:19.048Z,95310.44
2022-10-16T21:03:51.694Z,95307.16
2022-10-16T21:06:18.367Z,95306.50
2022-10-16T21:08:45.296Z,95298.44
2022-10-16T21:11:19.122Z,95307.53
2022-10-16T21:13:45.995Z,95306.38
2022-10-16T21:16:14.171Z,95310.84
2022-10-16T21:18:44.615Z,95311.72
2022-10-16T21:21:20.728Z,95318.63
2022-10-16T21:23:49.277Z,95319.66
2022-10-16T21:26:18.306Z,95313.44
2022-10-16T21:28:45.247Z,95318.69
2022-10-16T21:31:24.464Z,95316.00
2022-10-16T21:33:52.798Z,95323.03
2022-10-16T21:36:22.609Z,95320.75
2022-10-16T21:38:49.714Z,95316.22
2022-10-16T21:41:25.147Z,95329.28
2022-10-16T21:43:52.387Z,95337.00
2022-10-16T21:46:21.475Z,95333.38
2022-10-16T21:48:48.548Z,95333.75
2022-10-16T21:51:15.658Z,95337.75
2022-10-16T21:53:42.253Z,95347.63
2022-10-16T21:56:14.656Z,95341.00
2022-10-16T21:58:41.817Z,95344.47
2022-10-16T22:01:09.949Z,95356.06
2022-10-16T22:03:36.705Z,95352.06
2022-10-16T22:06:08.447Z,95362.97
2022-10-16T22:08:36.550Z,95365.72
2022-10-16T22:11:11.678Z,95370.56
2022-10-16T22:13:39.043Z,95363.72
2022-10-16T22:16:06.189Z,95366.44
2022-10-16T22:18:33.520Z,95372.66
2022-10-16T22:21:00.212Z,95371.78
2022-10-16T22:23:27.125Z,95372.50
2022-10-16T22:26:08.888Z,95381.00
2022-10-16T22:28:35.874Z,95375.84
2022-10-16T22:31:07.780Z,95382.38
2022-10-16T22:36:08.363Z,95385.19
2022-10-16T22:38:36.413Z,95389.47
2022-10-16T22:41:11.691Z,95385.81
2022-10-16T22:43:41.407Z,95387.38
2022-10-16T22:46:09.913Z,95388.75
2022-10-16T22:48:37.425Z,95391.88
2022-10-16T22:51:05.800Z,95388.34
2022-10-16T22:53:33.346Z,95396.03
2022-10-16T22:56:00.119Z,95389.13
2022-10-16T22:58:27.093Z,95396.94
2022-10-16T23:00:53.945Z,95397.59
2022-10-16T23:03:20.751Z,95394.50
2022-10-16T23:05:47.397Z,95398.13
2022-10-16T23:08:14.277Z,95405.41
2022-10-16T23:10:43.769Z,95397.19
2022-10-16T23:13:11.120Z,95397.84
2022-10-16T23:15:42.968Z,95397.63
2022-10-16T23:18:10.385Z,95397.38
2022-10-16T23:20:40.616Z,95406.53
2022-10-16T23:23:07.917Z,95404.44
2022-10-16T23:25:34.882Z,95401.16
2022-10-16T23:28:02.895Z,95407.00
2022-10-16T23:30:29.658Z,95403.34
2022-10-16T23:32:56.310Z,95413.88
2022-10-16T23:35:22.928Z,95405.84
2022-10-16T23:37:49.667Z,95405.91
2022-10-16T23:40:16.331Z,95408.25
2022-10-16T23:42:42.995Z,95409.50
2022-10-16T23:45:09.581Z,95409.97
2022-10-16T23:47:36.153Z,95413.28
2022-10-16T23:50:02.802Z,95405.63
2022-10-16T23:52:29.506Z,95406.75
2022-10-16T23:54:56.053Z,95414.22
2022-10-16T23:57:22.634Z,95405.72
2022-10-16T23:59:49.254Z,95414.19
